createdAt,value
2019-04-23T00:04:13.319Z,13.87
2019-04-23T00:06:45.401Z,10.77
2019-04-23T00:09:12.461Z,12.60
2019-04-23T00:11:33.960Z,14.63
2019-04-23T00:14:05.968Z,14.30
2019-04-23T00:16:30.147Z,13.80
2019-04-23T00:18:59.346Z,12.30
2019-04-23T00:21:43.043Z,13.63
2019-04-23T00:24:17.382Z,14.20
2019-04-23T00:26:47.522Z,15.37
2019-04-23T00:31:32.900Z,15.63
2019-04-23T00:34:01.086Z,13.80
2019-04-23T00:36:45.915Z,15.63
2019-04-23T00:38:54.224Z,14.90
2019-04-23T00:41:33.124Z,11.73
2019-04-23T00:44:06.332Z,16.57
2019-04-23T00:46:24.874Z,12.20
2019-04-23T00:49:03.676Z,11.80
2019-04-23T00:51:18.167Z,12.40
2019-04-23T00:53:43.853Z,13.83
2019-04-23T00:56:32.151Z,12.33
2019-04-23T01:01:14.851Z,15.47
2019-04-23T01:03:41.646Z,15.07
2019-04-23T01:06:18.502Z,13.43
2019-04-23T01:08:36.804Z,13.47
2019-04-23T01:11:13.390Z,16.93
2019-04-23T01:16:05.661Z,13.97
2019-04-23T01:21:13.953Z,15.50
2019-04-23T01:23:58.861Z,14.67
2019-04-23T01:26:42.206Z,16.13
2019-04-23T01:29:40.027Z,16.03
2019-04-23T01:31:48.639Z,15.57
2019-04-23T01:34:20.185Z,17.10
2019-04-23T01:36:35.566Z,14.80
2019-04-23T01:39:11.627Z,13.87
2019-04-23T01:41:44.822Z,17.70
2019-04-23T01:44:07.444Z,14.27
2019-04-23T01:46:36.203Z,15.43
2019-04-23T01:49:07.812Z,16.57
2019-04-23T01:51:34.420Z,16.63
2019-04-23T01:54:00.249Z,15.97
2019-04-23T01:56:30.803Z,15.33
2019-04-23T01:59:02.413Z,15.47
2019-04-23T02:01:36.632Z,16.37
2019-04-23T02:04:03.215Z,14.50
2019-04-23T02:06:20.356Z,15.37
2019-04-23T02:08:52.492Z,17.40
2019-04-23T02:11:16.436Z,18.10
2019-04-23T02:13:51.976Z,19.13
2019-04-23T02:16:23.051Z,16.53
2019-04-23T02:18:41.579Z,16.87
2019-04-23T02:21:14.889Z,23.60
2019-04-23T02:23:57.250Z,18.17
2019-04-23T02:26:33.315Z,17.97
2019-04-23T02:28:46.052Z,16.47
2019-04-23T02:36:22.715Z,18.10
2019-04-23T02:38:47.670Z,18.10
2019-04-23T02:41:08.928Z,18.10
2019-04-23T02:43:28.150Z,16.43
2019-04-23T02:46:13.236Z,18.77
2019-04-23T02:48:30.748Z,17.47
2019-04-23T02:50:54.162Z,22.87
2019-04-23T02:53:45.556Z,19.40
2019-04-23T02:56:05.753Z,18.93
2019-04-23T02:58:43.755Z,20.63
2019-04-23T03:01:19.519Z,20.97
2019-04-23T03:03:33.253Z,18.23
2019-04-23T03:05:51.042Z,19.30
2019-04-23T03:10:59.790Z,17.47
2019-04-23T03:23:50.002Z,19.57
2019-04-23T03:26:16.007Z,18.40
2019-04-23T03:41:08.935Z,21.90
2019-04-23T03:43:33.238Z,22.93
2019-04-23T03:46:12.434Z,20.33
2019-04-23T03:50:49.316Z,19.90
2019-04-23T03:53:32.699Z,18.97
2019-04-23T03:55:58.722Z,19.60
2019-04-23T03:58:21.422Z,23.60
2019-04-23T04:00:51.531Z,21.27
2019-04-23T04:03:42.417Z,18.90
2019-04-23T04:05:45.835Z,21.47
2019-04-23T04:10:44.748Z,20.53
2019-04-23T04:13:11.911Z,24.07
2019-04-23T04:18:21.331Z,21.17
2019-04-23T04:20:40.264Z,22.70
2019-04-23T04:28:12.068Z,20.87
2019-04-23T04:35:24.789Z,21.97
2019-04-23T04:38:10.024Z,19.57
2019-04-23T04:40:33.078Z,19.03
2019-04-23T04:47:44.833Z,21.77
2019-04-23T04:50:34.991Z,21.33
2019-04-23T04:55:18.199Z,20.73
2019-04-23T04:57:43.794Z,18.80
2019-04-23T05:02:53.144Z,22.07
2019-04-23T05:05:20.622Z,22.70
2019-04-23T05:07:38.192Z,18.90
2019-04-23T05:12:32.518Z,22.00
2019-04-23T05:15:03.060Z,19.97
2019-04-23T05:17:42.546Z,22.07
2019-04-23T05:20:04.637Z,19.43
2019-04-23T05:22:36.330Z,21.07
2019-04-23T05:24:51.279Z,19.90
2019-04-23T05:27:28.957Z,19.63
2019-04-23T05:30:02.874Z,17.63
2019-04-23T05:32:20.547Z,18.93
2019-04-23T05:34:50.415Z,18.73
2019-04-23T05:37:29.411Z,16.60
2019-04-23T05:39:49.531Z,19.97
2019-04-23T05:42:20.060Z,18.03
2019-04-23T05:44:43.329Z,22.53
2019-04-23T05:47:17.097Z,19.33
2019-04-23T05:49:43.471Z,18.77
2019-04-23T05:52:09.590Z,17.00
2019-04-23T05:54:35.160Z,19.07
2019-04-23T05:57:00.621Z,18.50
2019-04-23T05:59:30.089Z,20.90
2019-04-23T06:01:57.239Z,20.33
2019-04-23T06:04:32.648Z,19.80
2019-04-23T06:07:08.350Z,20.17
2019-04-23T06:09:28.820Z,19.53
2019-04-23T06:11:56.691Z,21.23
2019-04-23T06:14:40.285Z,21.87
2019-04-23T06:17:01.997Z,21.07
2019-04-23T06:19:18.952Z,18.30
2019-04-23T06:26:45.562Z,21.10
2019-04-23T06:29:20.484Z,20.83
2019-04-23T06:31:46.703Z,20.37
2019-04-23T06:34:12.494Z,19.27
2019-04-23T06:36:38.782Z,18.43
2019-04-23T06:39:02.987Z,20.77
2019-04-23T06:41:37.541Z,21.00
2019-04-23T06:44:14.360Z,18.23
2019-04-23T06:46:39.523Z,18.73
2019-04-23T06:49:02.476Z,19.73
2019-04-23T06:51:34.876Z,20.83
2019-04-23T06:53:57.838Z,23.63
2019-04-23T06:56:37.113Z,18.97
2019-04-23T06:58:58.855Z,21.20
2019-04-23T07:01:17.600Z,22.40
2019-04-23T07:04:02.173Z,19.73
2019-04-23T07:06:23.756Z,18.57
2019-04-23T07:09:05.279Z,19.43
2019-04-23T07:13:54.624Z,19.93
2019-04-23T07:18:41.194Z,21.17
2019-04-23T07:21:16.916Z,21.80
2019-04-23T07:23:47.733Z,20.70
2019-04-23T07:26:24.331Z,22.60
2019-04-23T07:28:48.495Z,19.37
2019-04-23T07:31:18.355Z,21.60
2019-04-23T07:33:35.059Z,21.03
2019-04-23T07:36:03.884Z,21.90
2019-04-23T07:38:54.670Z,19.17
2019-04-23T07:41:28.557Z,17.92
2019-04-23T07:43:55.398Z,21.07
2019-04-23T07:46:33.766Z,19.10
2019-04-23T07:48:50.675Z,21.83
2019-04-23T07:51:19.466Z,17.53
2019-04-23T07:53:56.384Z,20.70
2019-04-23T07:56:21.480Z,19.37
2019-04-23T07:58:40.101Z,20.23
2019-04-23T08:01:08.357Z,18.02
2019-04-23T08:03:43.884Z,19.45
2019-04-23T08:06:05.881Z,18.12
2019-04-23T08:08:37.814Z,21.12
2019-04-23T08:13:50.671Z,18.80
2019-04-23T08:16:18.244Z,19.62
2019-04-23T08:18:45.551Z,18.67
2019-04-23T08:21:06.082Z,19.65
2019-04-23T08:23:42.751Z,22.25
2019-04-23T08:26:34.838Z,18.55
2019-04-23T08:31:21.994Z,19.07
2019-04-23T08:33:56.842Z,19.40
2019-04-23T08:36:21.245Z,18.82
2019-04-23T08:38:44.423Z,19.90
2019-04-23T08:41:33.453Z,17.42
2019-04-23T08:46:24.145Z,19.62
2019-04-23T08:48:55.817Z,20.30
2019-04-23T08:51:32.279Z,20.25
2019-04-23T08:53:46.013Z,20.00
2019-04-23T08:56:08.728Z,17.52
2019-04-23T08:58:35.310Z,19.00
2019-04-23T09:01:12.278Z,21.90
2019-04-23T09:03:34.512Z,20.32
2019-04-23T09:06:05.358Z,22.58
2019-04-23T09:08:32.371Z,19.50
2019-04-23T09:11:19.427Z,21.62
2019-04-23T09:13:54.805Z,19.37
2019-04-23T09:15:56.607Z,20.72
2019-04-23T09:18:26.320Z,23.27
2019-04-23T09:20:55.211Z,19.15
2019-04-23T09:23:36.344Z,21.52
2019-04-23T09:25:54.366Z,18.87
2019-04-23T09:30:56.020Z,19.98
2019-04-23T09:33:33.973Z,20.43
2019-04-23T09:36:08.314Z,19.92
2019-04-23T09:38:41.391Z,22.73
2019-04-23T09:43:47.142Z,20.43
2019-04-23T09:46:25.699Z,19.40
2019-04-23T09:51:20.954Z,18.70
2019-04-23T09:53:41.170Z,20.92
2019-04-23T09:56:14.638Z,21.40
2019-04-23T09:58:41.515Z,22.80
2019-04-23T10:01:25.014Z,21.15
2019-04-23T10:03:38.524Z,20.72
2019-04-23T10:06:02.997Z,28.30
2019-04-23T10:08:27.923Z,20.25
2019-04-23T10:10:49.205Z,22.75
2019-04-23T10:13:15.922Z,23.22
2019-04-23T10:15:45.984Z,22.13
2019-04-23T10:18:11.999Z,22.67
2019-04-23T10:20:38.612Z,22.32
2019-04-23T10:23:06.271Z,21.68
2019-04-23T10:25:34.032Z,22.48
2019-04-23T10:28:05.377Z,24.10
2019-04-23T10:30:31.174Z,25.48
2019-04-23T10:32:57.877Z,24.07
2019-04-23T10:35:35.277Z,24.35
2019-04-23T10:37:58.594Z,24.63
2019-04-23T10:40:26.175Z,25.70
2019-04-23T10:42:51.749Z,22.32
2019-04-23T10:45:35.184Z,30.92
2019-04-23T10:48:31.743Z,26.77
2019-04-23T10:51:07.771Z,26.45
2019-04-23T10:53:37.902Z,20.12
2019-04-23T10:56:11.363Z,21.15
2019-04-23T10:58:36.880Z,20.88
2019-04-23T11:01:06.367Z,19.15
2019-04-23T11:03:49.240Z,19.87
2019-04-23T11:06:15.088Z,19.73
2019-04-23T11:08:31.127Z,22.17
2019-04-23T11:10:57.793Z,20.12
2019-04-23T11:16:24.734Z,18.17
2019-04-23T11:18:38.322Z,23.25
2019-04-23T11:20:56.416Z,22.20
2019-04-23T11:23:30.343Z,26.45
2019-04-23T11:25:55.870Z,19.75
2019-04-23T11:28:27.546Z,22.70
2019-04-23T11:30:54.831Z,21.10
2019-04-23T11:33:20.246Z,20.88
2019-04-23T11:36:22.186Z,24.85
2019-04-23T11:40:54.016Z,21.90
2019-04-23T11:43:28.102Z,19.17
2019-04-23T11:45:57.635Z,22.40
2019-04-23T11:48:46.228Z,20.45
2019-04-23T11:51:20.780Z,21.05
2019-04-23T11:53:20.432Z,22.62
2019-04-23T11:55:49.296Z,16.87
2019-04-23T12:01:05.552Z,25.20
2019-04-23T12:03:19.642Z,22.05
2019-04-23T12:06:15.339Z,21.87
2019-04-23T12:08:44.664Z,21.10
2019-04-23T12:14:10.234Z,17.50
2019-04-23T12:16:41.131Z,21.20
2019-04-23T12:19:28.923Z,22.13
2019-04-23T12:21:37.984Z,19.50
2019-04-23T12:24:05.174Z,16.95
2019-04-23T12:26:38.952Z,16.57
2019-04-23T12:28:57.714Z,22.00
2019-04-23T12:31:31.462Z,26.20
2019-04-23T12:34:01.050Z,19.50
2019-04-23T12:41:47.799Z,18.00
2019-04-23T12:44:07.866Z,17.07
2019-04-23T12:46:45.086Z,18.95
2019-04-23T12:49:20.552Z,23.30
2019-04-23T12:51:45.213Z,21.85
2019-04-23T12:54:07.730Z,17.60
2019-04-23T12:56:46.416Z,23.55
2019-04-23T12:58:51.059Z,21.27
2019-04-23T13:01:35.876Z,25.95
2019-04-23T13:03:45.819Z,30.82
2019-04-23T13:06:20.886Z,21.20
2019-04-23T13:08:53.763Z,18.23
2019-04-23T13:11:21.574Z,23.07
2019-04-23T13:13:53.537Z,24.52
2019-04-23T13:16:21.246Z,24.80
2019-04-23T13:18:44.793Z,19.37
2019-04-23T13:21:30.082Z,18.73
2019-04-23T13:23:38.938Z,53.75
2019-04-23T13:26:05.683Z,24.67
2019-04-23T13:28:38.745Z,22.52
2019-04-23T13:41:09.062Z,20.45
2019-04-23T13:44:34.355Z,21.62
2019-04-23T13:46:09.177Z,20.85
2019-04-23T13:48:19.947Z,17.55
2019-04-23T13:51:00.238Z,27.20
2019-04-23T13:53:35.516Z,21.37
2019-04-23T13:55:56.684Z,18.82
2019-04-23T14:01:00.923Z,22.05
2019-04-23T14:03:30.263Z,22.48
2019-04-23T14:05:52.667Z,19.98
2019-04-23T14:08:32.959Z,23.85
2019-04-23T14:10:48.067Z,23.07
2019-04-23T14:13:39.376Z,24.60
2019-04-23T14:16:01.619Z,23.67
2019-04-23T14:20:40.423Z,18.12
2019-04-23T14:23:10.742Z,24.72
2019-04-23T14:25:51.948Z,19.15
2019-04-23T14:33:12.048Z,19.70
2019-04-23T14:35:33.327Z,17.12
2019-04-23T14:38:19.978Z,25.70
2019-04-23T14:40:40.060Z,18.90
2019-04-23T14:43:06.516Z,19.05
2019-04-23T14:46:15.501Z,24.30
2019-04-23T14:48:08.962Z,23.55
2019-04-23T14:53:06.771Z,21.37
2019-04-23T14:58:10.563Z,19.57
2019-04-23T15:00:33.594Z,20.85
2019-04-23T15:03:08.760Z,19.32
2019-04-23T15:05:33.829Z,23.98
2019-04-23T15:08:02.189Z,27.67
2019-04-23T15:10:24.554Z,28.62
2019-04-23T15:12:50.606Z,23.80
2019-04-23T15:17:49.837Z,21.85
2019-04-23T15:23:11.207Z,22.07
2019-04-23T15:25:25.445Z,20.20
2019-04-23T15:30:03.681Z,23.02
2019-04-23T15:40:08.190Z,22.02
2019-04-23T15:45:09.352Z,28.25
2019-04-23T15:47:32.795Z,21.07
2019-04-23T15:52:40.149Z,21.50
2019-04-23T15:55:01.228Z,25.60
2019-04-23T15:57:40.321Z,21.73
2019-04-23T15:59:55.951Z,24.10
2019-04-23T16:01:53.520Z,24.25
2019-04-23T16:04:20.776Z,24.02
2019-04-23T16:06:47.885Z,24.05
2019-04-23T16:09:50.832Z,21.25
2019-04-23T16:12:03.447Z,27.58
2019-04-23T16:20:06.126Z,22.05
2019-04-23T16:22:18.970Z,23.87
2019-04-23T16:24:56.022Z,24.52
2019-04-23T16:27:17.025Z,18.75
2019-04-23T16:32:31.423Z,25.15
2019-04-23T16:35:15.619Z,26.12
2019-04-23T16:37:29.159Z,21.23
2019-04-23T16:40:03.485Z,20.45
2019-04-23T16:42:23.610Z,22.10
2019-04-23T16:50:03.185Z,23.52
2019-04-23T16:54:56.077Z,23.45
2019-04-23T16:57:35.708Z,21.33
2019-04-23T16:59:51.482Z,22.70
2019-04-23T17:02:17.488Z,25.70
2019-04-23T17:04:38.665Z,23.42
2019-04-23T17:07:12.073Z,26.23
2019-04-23T17:09:42.480Z,27.17
2019-04-23T17:12:10.508Z,29.20
2019-04-23T17:14:48.011Z,23.38
2019-04-23T17:16:53.540Z,26.93
2019-04-23T17:19:31.255Z,22.30
2019-04-23T17:22:02.825Z,21.35
2019-04-23T17:26:57.353Z,23.30
2019-04-23T17:29:28.686Z,23.05
2019-04-23T17:32:05.564Z,26.37
2019-04-23T17:37:26.881Z,23.65
2019-04-23T17:40:06.735Z,24.35
2019-04-23T17:42:29.217Z,26.25
2019-04-23T17:45:26.001Z,22.48
2019-04-23T17:50:23.500Z,34.13
2019-04-23T17:52:34.581Z,25.92
2019-04-23T17:55:10.911Z,24.80
2019-04-23T17:57:28.248Z,24.63
2019-04-23T18:02:51.679Z,25.25
2019-04-23T18:05:02.426Z,26.00
2019-04-23T18:07:38.437Z,23.15
2019-04-23T18:10:11.644Z,22.10
2019-04-23T18:12:30.765Z,25.85
2019-04-23T18:14:52.731Z,22.67
2019-04-23T18:17:35.629Z,27.65
2019-04-23T18:20:05.013Z,25.32
2019-04-23T18:25:19.508Z,29.02
2019-04-23T18:27:46.996Z,23.65
2019-04-23T18:33:32.709Z,27.48
2019-04-23T18:35:34.195Z,24.37
2019-04-23T18:37:56.475Z,24.12
2019-04-23T18:40:28.629Z,25.23
2019-04-23T18:42:53.523Z,25.90
2019-04-23T18:45:33.932Z,22.00
2019-04-23T18:47:48.949Z,22.37
2019-04-23T18:50:32.695Z,24.60
2019-04-23T18:55:24.497Z,24.00
2019-04-23T18:57:53.278Z,22.20
2019-04-23T19:00:18.498Z,20.43
2019-04-23T19:02:58.519Z,21.62
2019-04-23T19:05:31.391Z,26.85
2019-04-23T19:08:14.702Z,27.73
2019-04-23T19:10:48.669Z,24.00
2019-04-23T19:13:17.625Z,20.45
2019-04-23T19:18:14.534Z,23.95
2019-04-23T19:20:55.808Z,23.87
2019-04-23T19:23:16.478Z,24.40
2019-04-23T19:25:38.798Z,21.57
2019-04-23T19:28:23.579Z,25.12
2019-04-23T19:31:05.591Z,27.30
2019-04-23T19:33:41.635Z,26.15
2019-04-23T19:38:25.104Z,27.32
2019-04-23T19:41:02.196Z,27.45
2019-04-23T19:43:18.179Z,27.82
2019-04-23T19:48:28.045Z,27.50
2019-04-23T19:58:13.837Z,27.07
2019-04-23T20:01:00.593Z,26.48
2019-04-23T20:03:17.119Z,30.05
2019-04-23T20:05:41.483Z,25.87
2019-04-23T20:10:33.062Z,25.90
2019-04-23T20:13:02.093Z,26.20
2019-04-23T20:15:41.125Z,26.35
2019-04-23T20:18:21.916Z,26.80
2019-04-23T20:20:33.754Z,27.48
2019-04-23T20:23:00.109Z,30.23
2019-04-23T20:28:15.010Z,26.87
2019-04-23T20:31:03.498Z,27.27
2019-04-23T20:35:40.790Z,21.90
2019-04-23T20:40:51.261Z,31.20
2019-04-23T20:42:58.371Z,30.67
2019-04-23T20:45:41.021Z,26.55
2019-04-23T20:48:04.827Z,30.23
2019-04-23T20:50:34.790Z,25.08
2019-04-23T20:52:59.640Z,28.70
2019-04-23T20:55:40.758Z,32.53
2019-04-23T20:58:13.884Z,25.90
2019-04-23T21:00:59.183Z,28.45
2019-04-23T21:05:49.981Z,29.92
2019-04-23T21:08:22.409Z,32.87
2019-04-23T21:10:51.116Z,29.67
2019-04-23T21:18:22.728Z,29.25
2019-04-23T21:20:42.688Z,31.68
2019-04-23T21:23:11.307Z,25.43
2019-04-23T21:28:18.203Z,28.20
2019-04-23T21:33:26.551Z,31.87
2019-04-23T21:36:12.650Z,28.23
2019-04-23T21:38:41.825Z,26.60
2019-04-23T21:41:05.949Z,28.97
2019-04-23T21:43:47.547Z,31.30
2019-04-23T21:46:15.889Z,27.67
2019-04-23T21:48:50.969Z,27.07
2019-04-23T21:53:33.125Z,28.92
2019-04-23T21:56:02.458Z,25.77
2019-04-23T22:03:49.655Z,28.02
2019-04-23T22:05:55.526Z,27.57
2019-04-23T22:08:16.995Z,29.40
2019-04-23T22:11:11.545Z,28.90
2019-04-23T22:13:29.573Z,27.55
2019-04-23T22:16:03.965Z,29.97
2019-04-23T22:18:16.165Z,31.73
2019-04-23T22:23:10.836Z,35.30
2019-04-23T22:25:50.195Z,28.93
2019-04-23T22:28:10.155Z,30.65
2019-04-23T22:30:54.720Z,31.50
2019-04-23T22:35:44.595Z,30.47
2019-04-23T22:40:28.391Z,31.40
2019-04-23T22:45:27.517Z,28.90
2019-04-23T22:47:54.969Z,29.30
2019-04-23T22:50:19.135Z,33.17
2019-04-23T22:52:53.805Z,28.25
2019-04-23T22:55:17.503Z,27.85
2019-04-23T22:58:01.360Z,26.68
2019-04-23T23:02:58.363Z,27.10
2019-04-23T23:05:37.559Z,32.10
2019-04-23T23:08:01.684Z,34.88
2019-04-23T23:10:12.963Z,26.53
2019-04-23T23:12:56.057Z,27.27
2019-04-23T23:15:17.831Z,29.90
2019-04-23T23:17:45.538Z,33.00
2019-04-23T23:22:39.817Z,26.37
2019-04-23T23:25:13.409Z,26.33
2019-04-23T23:27:32.335Z,28.92
2019-04-23T23:30:02.733Z,29.17
2019-04-23T23:35:08.031Z,27.70
2019-04-23T23:37:23.498Z,25.72
2019-04-23T23:39:58.382Z,27.53
2019-04-23T23:42:15.532Z,28.65
2019-04-23T23:44:58.300Z,33.93
2019-04-23T23:49:46.009Z,27.23
2019-04-23T23:52:02.966Z,29.15
2019-04-23T23:54:40.304Z,27.43
2019-04-23T23:57:12.097Z,25.62
